createdAt,value
2023-03-14T00:00:02.313Z,0.00
2023-03-14T00:01:02.217Z,0.00
2023-03-14T00:02:02.283Z,0.00
2023-03-14T00:03:02.224Z,0.00
2023-03-14T00:04:02.239Z,0.00
2023-03-14T00:05:02.223Z,0.00
2023-03-14T00:06:02.180Z,0.00
2023-03-14T00:07:02.164Z,0.00
2023-03-14T00:08:02.193Z,0.00
2023-03-14T00:09:02.097Z,0.00
2023-03-14T00:10:02.204Z,0.00
2023-03-14T00:11:02.096Z,0.00
2023-03-14T00:12:02.102Z,0.00
2023-03-14T00:13:02.063Z,0.00
2023-03-14T00:14:02.079Z,0.00
2023-03-14T00:15:02.033Z,0.00
2023-03-14T00:16:02.069Z,0.00
2023-03-14T00:17:02.054Z,0.00
2023-03-14T00:18:02.130Z,0.00
2023-03-14T00:19:01.980Z,0.00
2023-03-14T00:20:01.992Z,0.00
2023-03-14T00:21:01.976Z,0.00
2023-03-14T00:22:01.985Z,0.00
2023-03-14T00:23:01.943Z,0.00
2023-03-14T00:24:01.959Z,0.00
2023-03-14T00:25:01.903Z,0.00
2023-03-14T00:26:01.913Z,0.00
2023-03-14T00:27:01.877Z,0.00
2023-03-14T00:28:01.871Z,0.00
2023-03-14T00:29:01.854Z,0.00
2023-03-14T00:30:01.876Z,0.00
2023-03-14T00:31:01.853Z,0.00
2023-03-14T00:32:01.826Z,0.00
2023-03-14T00:33:01.781Z,0.00
2023-03-14T00:34:01.789Z,0.00
2023-03-14T00:35:01.759Z,0.00
2023-03-14T00:36:01.912Z,0.00
2023-03-14T00:37:01.735Z,0.00
2023-03-14T00:38:01.744Z,0.00
2023-03-14T00:39:01.708Z,0.00
2023-03-14T00:40:01.762Z,0.00
2023-03-14T00:41:01.667Z,0.00
2023-03-14T00:42:01.685Z,0.00
2023-03-14T00:43:01.653Z,0.00
2023-03-14T00:44:01.685Z,0.00
2023-03-14T00:45:01.622Z,0.00
2023-03-14T00:46:01.634Z,0.00
2023-03-14T00:47:01.642Z,0.00
2023-03-14T00:48:01.603Z,0.00
2023-03-14T00:49:01.589Z,0.00
2023-03-14T00:50:01.588Z,0.00
2023-03-14T00:51:01.538Z,0.00
2023-03-14T00:52:01.561Z,0.00
2023-03-14T00:53:01.521Z,0.00
2023-03-14T00:54:01.550Z,0.00
2023-03-14T00:55:01.500Z,0.00
2023-03-14T00:56:01.491Z,0.00
2023-03-14T00:57:01.471Z,0.00
2023-03-14T00:58:01.458Z,0.00
2023-03-14T00:59:01.441Z,0.00
2023-03-14T01:00:01.564Z,0.00
2023-03-14T01:01:01.399Z,0.00
2023-03-14T01:02:01.445Z,0.00
2023-03-14T01:03:01.465Z,0.00
2023-03-14T01:04:01.412Z,0.00
2023-03-14T01:05:01.378Z,0.00
2023-03-14T01:06:01.369Z,0.00
2023-03-14T01:07:01.337Z,0.00
2023-03-14T01:08:01.346Z,0.00
2023-03-14T01:09:01.304Z,0.00
2023-03-14T01:10:01.319Z,0.00
2023-03-14T01:11:01.290Z,0.00
2023-03-14T01:12:01.282Z,0.00
2023-03-14T01:13:01.270Z,0.00
2023-03-14T01:14:01.276Z,0.00
2023-03-14T01:15:01.226Z,0.00
2023-03-14T01:16:01.284Z,0.00
2023-03-14T01:17:01.204Z,0.00
2023-03-14T01:18:01.197Z,0.00
2023-03-14T01:19:01.179Z,0.00
2023-03-14T01:20:01.264Z,0.00
2023-03-14T01:21:01.133Z,0.00
2023-03-14T01:22:01.196Z,0.00
2023-03-14T01:23:01.126Z,0.00
2023-03-14T01:24:01.153Z,0.00
2023-03-14T01:25:01.098Z,0.00
2023-03-14T01:26:01.102Z,0.00
2023-03-14T01:27:01.057Z,0.00
2023-03-14T01:28:01.072Z,0.00
2023-03-14T01:29:01.052Z,0.00
2023-03-14T01:30:01.077Z,0.00
2023-03-14T01:31:01.014Z,0.00
2023-03-14T01:32:01.045Z,0.00
2023-03-14T01:33:00.980Z,0.00
2023-03-14T01:34:01.016Z,0.00
2023-03-14T01:35:00.958Z,0.00
2023-03-14T01:36:00.989Z,0.00
2023-03-14T01:37:00.932Z,0.00
2023-03-14T01:38:00.969Z,0.00
2023-03-14T01:39:00.893Z,0.00
2023-03-14T01:40:00.907Z,0.00
2023-03-14T01:41:00.882Z,0.00
2023-03-14T01:42:00.873Z,0.00
2023-03-14T01:43:00.858Z,0.00
2023-03-14T01:44:00.858Z,0.00
2023-03-14T01:45:00.819Z,0.00
2023-03-14T01:46:00.866Z,0.00
2023-03-14T01:47:00.806Z,0.00
2023-03-14T01:48:00.796Z,0.00
2023-03-14T01:49:00.766Z,0.00
2023-03-14T01:50:00.795Z,0.00
2023-03-14T01:51:00.754Z,0.00
2023-03-14T01:52:00.754Z,0.00
2023-03-14T01:53:00.719Z,0.00
2023-03-14T01:54:00.722Z,0.00
2023-03-14T01:55:00.723Z,0.00
2023-03-14T01:56:00.696Z,0.00
2023-03-14T01:57:00.657Z,0.00
2023-03-14T01:58:00.660Z,0.00
2023-03-14T01:59:00.675Z,0.00
2023-03-14T02:00:00.632Z,0.00
2023-03-14T02:01:00.693Z,0.00
2023-03-14T02:02:00.597Z,0.00
2023-03-14T02:03:00.609Z,0.00
2023-03-14T02:04:00.568Z,0.00
2023-03-14T02:05:00.589Z,0.00
2023-03-14T02:06:00.552Z,0.00
2023-03-14T02:07:00.559Z,0.00
2023-03-14T02:08:00.516Z,0.00
2023-03-14T02:09:00.520Z,0.00
2023-03-14T02:10:00.490Z,0.00
2023-03-14T02:11:00.501Z,0.00
2023-03-14T02:12:00.445Z,0.00
2023-03-14T02:13:00.468Z,0.00
2023-03-14T02:14:00.434Z,0.00
2023-03-14T02:15:00.427Z,0.00
2023-03-14T02:16:00.463Z,0.00
2023-03-14T02:17:00.410Z,0.00
2023-03-14T02:18:00.389Z,0.00
2023-03-14T02:19:00.396Z,0.00
2023-03-14T02:20:00.335Z,0.00
2023-03-14T02:21:00.358Z,0.00
2023-03-14T02:22:00.304Z,0.00
2023-03-14T02:23:00.339Z,0.00
2023-03-14T02:24:00.281Z,0.00
2023-03-14T02:25:00.307Z,0.00
2023-03-14T02:26:00.290Z,0.00
2023-03-14T02:27:00.288Z,0.00
2023-03-14T02:28:00.220Z,0.00
2023-03-14T02:29:00.229Z,0.00
2023-03-14T02:30:00.282Z,0.00
2023-03-14T02:31:00.242Z,0.00
2023-03-14T02:32:00.242Z,0.00
2023-03-14T02:33:00.346Z,0.00
2023-03-14T02:34:00.159Z,0.00
2023-03-14T02:35:00.173Z,0.00
2023-03-14T02:36:00.230Z,0.00
2023-03-14T02:37:00.138Z,0.00
2023-03-14T02:38:00.098Z,0.00
2023-03-14T02:39:00.120Z,0.00
2023-03-14T02:40:00.086Z,0.00
2023-03-14T02:41:00.093Z,0.00
2023-03-14T02:42:00.095Z,0.00
2023-03-14T02:43:00.085Z,0.00
2023-03-14T02:44:00.040Z,0.00
2023-03-14T02:45:00.015Z,0.00
2023-03-14T02:46:00.089Z,0.00
2023-03-14T02:46:59.996Z,0.00
2023-03-14T02:47:59.991Z,0.00
2023-03-14T02:48:59.982Z,0.00
2023-03-14T02:49:59.952Z,0.00
2023-03-14T02:50:59.944Z,0.00
2023-03-14T02:51:59.898Z,0.00
2023-03-14T02:52:59.912Z,0.00
2023-03-14T02:53:59.872Z,0.00
2023-03-14T02:54:59.907Z,0.00
2023-03-14T02:55:59.863Z,0.00
2023-03-14T02:56:59.862Z,0.00
2023-03-14T02:57:59.819Z,0.00
2023-03-14T02:58:59.828Z,0.00
2023-03-14T02:59:59.808Z,0.00
2023-03-14T03:00:59.813Z,0.00
2023-03-14T03:01:59.756Z,0.00
2023-03-14T03:02:59.803Z,0.00
2023-03-14T03:03:59.742Z,0.00
2023-03-14T03:04:59.752Z,0.00
2023-03-14T03:05:59.711Z,0.00
2023-03-14T03:06:59.721Z,0.00
2023-03-14T03:07:59.696Z,0.00
2023-03-14T03:08:59.697Z,0.00
2023-03-14T03:09:59.690Z,0.00
2023-03-14T03:10:59.697Z,0.00
2023-03-14T03:11:59.643Z,0.00
2023-03-14T03:12:59.639Z,0.00
2023-03-14T03:13:59.602Z,0.00
2023-03-14T03:14:59.647Z,0.00
2023-03-14T03:15:59.593Z,0.00
2023-03-14T03:16:59.805Z,0.00
2023-03-14T03:17:59.562Z,0.00
2023-03-14T03:18:59.582Z,0.00
2023-03-14T03:19:59.556Z,0.00
2023-03-14T03:20:59.565Z,0.00
2023-03-14T03:21:59.542Z,0.00
2023-03-14T03:22:59.507Z,0.00
2023-03-14T03:23:59.472Z,0.00
2023-03-14T03:24:59.508Z,0.00
2023-03-14T03:25:59.465Z,0.00
2023-03-14T03:26:59.489Z,0.00
2023-03-14T03:27:59.448Z,0.00
2023-03-14T03:28:59.430Z,0.00
2023-03-14T03:29:59.387Z,0.00
2023-03-14T03:30:59.555Z,0.00
2023-03-14T03:31:59.381Z,0.00
2023-03-14T03:32:59.494Z,0.00
2023-03-14T03:33:59.344Z,0.00
2023-03-14T03:34:59.402Z,0.00
2023-03-14T03:35:59.340Z,0.00
2023-03-14T03:36:59.376Z,0.00
2023-03-14T03:37:59.284Z,0.00
2023-03-14T03:38:59.345Z,0.00
2023-03-14T03:39:59.275Z,0.00
2023-03-14T03:40:59.274Z,0.00
2023-03-14T03:41:59.291Z,0.00
2023-03-14T03:42:59.236Z,0.00
2023-03-14T03:43:59.202Z,0.00
2023-03-14T03:44:59.246Z,0.00
2023-03-14T03:45:59.252Z,0.00
2023-03-14T03:46:59.205Z,0.00
2023-03-14T03:47:59.167Z,0.00
2023-03-14T03:48:59.200Z,0.00
2023-03-14T03:49:59.126Z,0.00
2023-03-14T03:50:59.154Z,0.00
2023-03-14T03:51:59.108Z,0.00
2023-03-14T03:52:59.141Z,0.00
2023-03-14T03:53:59.098Z,0.00
2023-03-14T03:54:59.105Z,0.00
2023-03-14T03:55:59.040Z,0.00
2023-03-14T03:56:59.053Z,0.00
2023-03-14T03:57:59.063Z,0.00
2023-03-14T03:58:59.053Z,0.00
2023-03-14T03:59:59.017Z,0.00
2023-03-14T04:00:59.010Z,0.00
2023-03-14T04:01:58.964Z,0.00
2023-03-14T04:02:58.992Z,0.00
2023-03-14T04:03:59.000Z,0.00
2023-03-14T04:04:58.947Z,0.00
2023-03-14T04:05:58.916Z,0.00
2023-03-14T04:06:58.924Z,0.00
2023-03-14T04:07:58.886Z,0.00
2023-03-14T04:08:58.935Z,0.00
2023-03-14T04:09:58.876Z,0.00
2023-03-14T04:10:58.866Z,0.00
2023-03-14T04:11:58.847Z,0.00
2023-03-14T04:12:58.832Z,0.00
2023-03-14T04:13:58.836Z,0.00
2023-03-14T04:14:58.823Z,0.00
2023-03-14T04:15:58.796Z,0.00
2023-03-14T04:16:58.796Z,0.00
2023-03-14T04:17:58.754Z,0.00
2023-03-14T04:18:58.801Z,0.00
2023-03-14T04:19:58.758Z,0.00
2023-03-14T04:20:58.767Z,0.00
2023-03-14T04:21:58.709Z,0.00
2023-03-14T04:22:58.717Z,0.00
2023-03-14T04:23:58.672Z,0.00
2023-03-14T04:24:58.746Z,0.00
2023-03-14T04:25:58.687Z,0.00
2023-03-14T04:26:58.672Z,0.00
2023-03-14T04:27:58.618Z,0.00
2023-03-14T04:28:58.651Z,0.00
2023-03-14T04:29:58.599Z,0.00
2023-03-14T04:30:58.623Z,0.00
2023-03-14T04:31:58.581Z,0.00
2023-03-14T04:32:58.670Z,0.00
2023-03-14T04:33:58.542Z,0.00
2023-03-14T04:34:58.573Z,0.00
2023-03-14T04:35:58.530Z,0.00
2023-03-14T04:36:58.528Z,0.00
2023-03-14T04:37:58.510Z,0.00
2023-03-14T04:38:58.576Z,0.00
2023-03-14T04:39:58.469Z,0.00
2023-03-14T04:40:58.473Z,0.00
2023-03-14T04:41:58.452Z,0.00
2023-03-14T04:42:58.447Z,0.00
2023-03-14T04:43:58.413Z,0.00
2023-03-14T04:44:58.421Z,0.00
2023-03-14T04:45:58.411Z,0.00
2023-03-14T04:46:58.498Z,0.00
2023-03-14T04:47:58.360Z,0.00
2023-03-14T04:48:58.397Z,0.00
2023-03-14T04:49:58.324Z,0.00
2023-03-14T04:50:58.346Z,0.00
2023-03-14T04:51:58.339Z,0.00
2023-03-14T04:52:58.304Z,0.00
2023-03-14T04:53:58.298Z,0.00
2023-03-14T04:54:58.275Z,0.00
2023-03-14T04:55:58.258Z,0.00
2023-03-14T04:56:58.259Z,0.00
2023-03-14T04:57:58.226Z,0.00
2023-03-14T04:58:58.298Z,0.00
2023-03-14T04:59:58.180Z,0.00
2023-03-14T05:00:58.199Z,0.00
2023-03-14T05:01:58.232Z,0.00
2023-03-14T05:02:58.242Z,0.00
2023-03-14T05:03:58.153Z,0.00
2023-03-14T05:04:58.148Z,0.00
2023-03-14T05:05:58.108Z,0.00
2023-03-14T05:06:58.126Z,0.00
2023-03-14T05:07:58.077Z,0.00
2023-03-14T05:08:58.121Z,0.00
2023-03-14T05:09:58.070Z,0.00
2023-03-14T05:10:58.043Z,0.00
2023-03-14T05:11:58.072Z,0.00
2023-03-14T05:12:58.041Z,0.00
2023-03-14T05:13:58.012Z,0.00
2023-03-14T05:14:58.006Z,0.00
2023-03-14T05:15:57.996Z,0.00
2023-03-14T05:16:58.024Z,0.00
2023-03-14T05:17:57.946Z,0.00
2023-03-14T05:18:57.955Z,0.00
2023-03-14T05:19:57.912Z,0.00
2023-03-14T05:20:57.946Z,0.00
2023-03-14T05:21:57.880Z,0.00
2023-03-14T05:22:57.910Z,0.00
2023-03-14T05:23:57.855Z,0.00
2023-03-14T05:24:57.891Z,0.00
2023-03-14T05:25:57.832Z,0.00
2023-03-14T05:26:57.852Z,0.00
2023-03-14T05:27:57.863Z,0.00
2023-03-14T05:28:57.822Z,0.00
2023-03-14T05:29:57.806Z,0.00
2023-03-14T05:30:57.828Z,0.00
2023-03-14T05:31:57.773Z,0.00
2023-03-14T05:32:57.822Z,0.00
2023-03-14T05:33:57.748Z,0.00
2023-03-14T05:34:57.735Z,0.00
2023-03-14T05:35:57.717Z,4.00
2023-03-14T05:36:57.737Z,4.00
2023-03-14T05:37:57.679Z,0.00
2023-03-14T05:38:57.691Z,0.00
2023-03-14T05:39:57.656Z,4.00
2023-03-14T05:40:57.673Z,4.00
2023-03-14T05:41:57.636Z,4.00
2023-03-14T05:42:57.637Z,0.00
2023-03-14T05:43:57.603Z,4.00
2023-03-14T05:44:57.643Z,4.00
2023-03-14T05:45:57.603Z,8.00
2023-03-14T05:46:57.615Z,4.00
2023-03-14T05:47:57.551Z,8.00
2023-03-14T05:48:57.569Z,4.00
2023-03-14T05:49:57.542Z,8.00
2023-03-14T05:50:57.552Z,8.00
2023-03-14T05:51:57.483Z,8.00
2023-03-14T05:52:57.521Z,12.00
2023-03-14T05:53:57.475Z,8.00
2023-03-14T05:54:57.473Z,12.00
2023-03-14T05:55:58.249Z,12.00
2023-03-14T05:56:57.453Z,12.00
2023-03-14T05:57:57.441Z,12.00
2023-03-14T05:58:57.440Z,16.00
2023-03-14T05:59:57.411Z,12.00
2023-03-14T06:00:57.392Z,12.00
2023-03-14T06:01:57.403Z,16.00
2023-03-14T06:02:57.447Z,12.00
2023-03-14T06:03:57.329Z,16.00
2023-03-14T06:04:57.355Z,16.00
2023-03-14T06:05:57.307Z,20.00
2023-03-14T06:06:57.332Z,20.00
2023-03-14T06:07:57.288Z,20.00
2023-03-14T06:08:57.366Z,20.00
2023-03-14T06:09:57.258Z,24.00
2023-03-14T06:10:57.271Z,24.00
2023-03-14T06:11:57.225Z,28.00
2023-03-14T06:12:57.250Z,28.00
2023-03-14T06:13:57.216Z,32.00
2023-03-14T06:14:57.235Z,32.00
2023-03-14T06:15:57.210Z,32.00
2023-03-14T06:16:57.213Z,32.00
2023-03-14T06:17:57.157Z,36.00
2023-03-14T06:18:57.125Z,40.00
2023-03-14T06:19:57.164Z,44.00
2023-03-14T06:20:57.097Z,68.00
2023-03-14T06:21:57.132Z,80.00
2023-03-14T06:22:57.071Z,104.00
2023-03-14T06:23:57.077Z,96.00
2023-03-14T06:24:57.066Z,108.00
2023-03-14T06:25:57.064Z,140.00
2023-03-14T06:26:57.221Z,116.00
2023-03-14T06:27:57.025Z,116.00
2023-03-14T06:28:57.000Z,164.00
2023-03-14T06:29:57.034Z,136.00
2023-03-14T06:30:57.081Z,72.00
2023-03-14T06:31:56.984Z,88.00
2023-03-14T06:32:56.996Z,68.00
2023-03-14T06:33:56.940Z,60.00
2023-03-14T06:34:56.917Z,56.00
2023-03-14T06:35:56.985Z,64.00
2023-03-14T06:36:56.891Z,72.00
2023-03-14T06:37:56.904Z,80.00
2023-03-14T06:38:56.878Z,88.00
2023-03-14T06:39:56.859Z,88.00
2023-03-14T06:40:56.860Z,80.00
2023-03-14T06:41:56.849Z,72.00
2023-03-14T06:42:56.815Z,68.00
2023-03-14T06:43:56.863Z,104.00
2023-03-14T06:44:56.788Z,44.00
2023-03-14T06:45:56.847Z,44.00
2023-03-14T06:46:56.793Z,52.00
2023-03-14T06:47:56.779Z,48.00
2023-03-14T06:48:56.724Z,48.00
2023-03-14T06:49:56.735Z,44.00
2023-03-14T06:50:56.725Z,36.00
2023-03-14T06:51:56.730Z,40.00
2023-03-14T06:52:56.730Z,40.00
2023-03-14T06:53:56.721Z,40.00
2023-03-14T06:54:56.701Z,52.00
2023-03-14T06:55:56.713Z,52.00
2023-03-14T06:56:56.635Z,48.00
2023-03-14T06:57:56.650Z,48.00
2023-03-14T06:58:56.577Z,52.00
2023-03-14T06:59:56.602Z,52.00
2023-03-14T07:00:56.639Z,56.00
2023-03-14T07:01:56.599Z,60.00
2023-03-14T07:02:56.574Z,68.00
2023-03-14T07:03:56.581Z,64.00
2023-03-14T07:04:56.516Z,64.00
2023-03-14T07:05:56.524Z,76.00
2023-03-14T07:06:56.501Z,100.00
2023-03-14T07:07:56.533Z,104.00
2023-03-14T07:08:56.468Z,104.00
2023-03-14T07:09:56.588Z,112.00
2023-03-14T07:10:56.458Z,124.00
2023-03-14T07:11:56.447Z,140.00
2023-03-14T07:12:56.416Z,144.00
2023-03-14T07:13:56.435Z,168.00
2023-03-14T07:14:57.663Z,152.00
2023-03-14T07:15:56.448Z,148.00
2023-03-14T07:16:56.354Z,140.00
2023-03-14T07:17:56.397Z,128.00
2023-03-14T07:18:56.362Z,128.00
2023-03-14T07:19:56.331Z,120.00
2023-03-14T07:20:56.325Z,100.00
2023-03-14T07:21:56.328Z,92.00
2023-03-14T07:22:56.359Z,84.00
2023-03-14T07:23:56.309Z,76.00
2023-03-14T07:24:56.259Z,72.00
2023-03-14T07:25:56.257Z,68.00
2023-03-14T07:26:56.232Z,72.00
2023-03-14T07:27:56.260Z,76.00
2023-03-14T07:28:56.236Z,84.00
2023-03-14T07:29:56.211Z,104.00
2023-03-14T07:30:56.239Z,116.00
2023-03-14T07:31:56.235Z,116.00
2023-03-14T07:32:56.251Z,104.00
2023-03-14T07:33:56.177Z,96.00
2023-03-14T07:34:56.246Z,96.00
2023-03-14T07:35:56.200Z,100.00
2023-03-14T07:36:56.173Z,108.00
2023-03-14T07:37:56.133Z,112.00
2023-03-14T07:38:56.084Z,132.00
2023-03-14T07:39:56.126Z,144.00
2023-03-14T07:40:56.057Z,144.00
2023-03-14T07:41:56.057Z,156.00
2023-03-14T07:42:56.055Z,140.00
2023-03-14T07:43:56.038Z,132.00
2023-03-14T07:44:55.973Z,160.00
2023-03-14T07:45:59.541Z,204.00
2023-03-14T07:46:56.041Z,192.00
2023-03-14T07:47:55.959Z,148.00
2023-03-14T07:48:55.933Z,136.00
2023-03-14T07:49:56.014Z,132.00
2023-03-14T07:50:55.905Z,132.00
2023-03-14T07:51:55.921Z,136.00
2023-03-14T07:52:55.892Z,128.00
2023-03-14T07:53:55.952Z,124.00
2023-03-14T07:54:55.870Z,120.00
2023-03-14T07:55:55.895Z,104.00
2023-03-14T07:56:55.845Z,88.00
2023-03-14T07:57:55.824Z,84.00
2023-03-14T07:58:55.801Z,92.00
2023-03-14T07:59:55.840Z,92.00
2023-03-14T08:00:55.773Z,92.00
2023-03-14T08:01:55.783Z,100.00
2023-03-14T08:02:55.800Z,92.00
2023-03-14T08:03:55.824Z,92.00
2023-03-14T08:04:55.754Z,92.00
2023-03-14T08:05:55.732Z,92.00
2023-03-14T08:06:55.704Z,80.00
2023-03-14T08:07:55.701Z,84.00
2023-03-14T08:08:55.660Z,100.00
2023-03-14T08:09:55.710Z,100.00
2023-03-14T08:10:55.709Z,100.00
2023-03-14T08:11:57.581Z,96.00
2023-03-14T08:12:55.609Z,92.00
2023-03-14T08:13:55.619Z,96.00
2023-03-14T08:14:55.581Z,92.00
2023-03-14T08:15:55.692Z,92.00
2023-03-14T08:16:55.564Z,100.00
2023-03-14T08:17:55.582Z,100.00
2023-03-14T08:18:55.555Z,88.00
2023-03-14T08:19:55.546Z,88.00
2023-03-14T08:20:55.493Z,92.00
2023-03-14T08:21:55.539Z,88.00
2023-03-14T08:22:55.471Z,88.00
2023-03-14T08:23:55.495Z,96.00
2023-03-14T08:24:55.456Z,108.00
2023-03-14T08:25:55.464Z,108.00
2023-03-14T08:26:55.494Z,124.00
2023-03-14T08:27:55.436Z,120.00
2023-03-14T08:28:55.443Z,128.00
2023-03-14T08:29:55.434Z,128.00
2023-03-14T08:30:55.563Z,128.00
2023-03-14T08:31:55.571Z,120.00
2023-03-14T08:32:55.348Z,120.00
2023-03-14T08:33:55.360Z,120.00
2023-03-14T08:34:55.330Z,108.00
2023-03-14T08:35:55.391Z,100.00
2023-03-14T08:36:55.328Z,100.00
2023-03-14T08:37:55.312Z,104.00
2023-03-14T08:38:55.735Z,100.00
2023-03-14T08:39:55.266Z,92.00
2023-03-14T08:40:55.225Z,104.00
2023-03-14T08:41:55.229Z,104.00
2023-03-14T08:42:55.220Z,104.00
2023-03-14T08:43:55.253Z,116.00
2023-03-14T08:44:55.180Z,124.00
2023-03-14T08:45:55.177Z,124.00
2023-03-14T08:46:55.241Z,176.00
2023-03-14T08:47:55.187Z,248.00
2023-03-14T08:48:55.128Z,204.00
2023-03-14T08:49:55.171Z,132.00
2023-03-14T08:50:55.104Z,112.00
2023-03-14T08:51:55.117Z,100.00
2023-03-14T08:52:55.123Z,88.00
2023-03-14T08:53:55.083Z,72.00
2023-03-14T08:54:55.041Z,68.00
2023-03-14T08:55:55.080Z,68.00
2023-03-14T08:56:55.022Z,72.00
2023-03-14T08:57:55.050Z,72.00
2023-03-14T08:58:55.044Z,72.00
2023-03-14T08:59:55.021Z,68.00
2023-03-14T09:00:55.069Z,72.00
2023-03-14T09:01:54.979Z,80.00
2023-03-14T09:02:54.972Z,84.00
2023-03-14T09:03:55.013Z,92.00
2023-03-14T09:04:54.928Z,120.00
2023-03-14T09:05:54.937Z,136.00
2023-03-14T09:06:54.896Z,160.00
2023-03-14T09:07:54.889Z,152.00
2023-03-14T09:08:54.878Z,180.00
2023-03-14T09:09:54.859Z,200.00
2023-03-14T09:10:54.817Z,264.00
2023-03-14T09:11:54.865Z,304.00
2023-03-14T09:12:54.834Z,276.00
2023-03-14T09:13:54.856Z,212.00
2023-03-14T09:14:54.765Z,204.00
2023-03-14T09:15:54.814Z,268.00
2023-03-14T09:16:54.826Z,176.00
2023-03-14T09:17:54.764Z,164.00
2023-03-14T09:18:54.738Z,164.00
2023-03-14T09:19:54.750Z,156.00
2023-03-14T09:20:54.721Z,168.00
2023-03-14T09:21:54.777Z,172.00
2023-03-14T09:22:54.671Z,184.00
2023-03-14T09:23:54.695Z,220.00
2023-03-14T09:24:54.670Z,200.00
2023-03-14T09:25:54.673Z,196.00
2023-03-14T09:26:54.619Z,212.00
2023-03-14T09:27:54.618Z,344.00
2023-03-14T09:28:55.546Z,248.00
2023-03-14T09:29:54.605Z,192.00
2023-03-14T09:30:54.765Z,160.00
2023-03-14T09:31:54.691Z,144.00
2023-03-14T09:32:54.565Z,124.00
2023-03-14T09:33:54.548Z,112.00
2023-03-14T09:34:54.540Z,104.00
2023-03-14T09:35:54.556Z,128.00
2023-03-14T09:36:54.480Z,128.00
2023-03-14T09:37:54.497Z,112.00
2023-03-14T09:38:54.493Z,120.00
2023-03-14T09:39:54.487Z,132.00
2023-03-14T09:40:54.464Z,132.00
2023-03-14T09:41:54.426Z,128.00
2023-03-14T09:42:55.071Z,124.00
2023-03-14T09:43:54.430Z,120.00
2023-03-14T09:44:54.376Z,120.00
2023-03-14T09:45:54.410Z,136.00
2023-03-14T09:46:54.327Z,140.00
2023-03-14T09:47:59.428Z,144.00
2023-03-14T09:48:54.321Z,148.00
2023-03-14T09:49:54.325Z,184.00
2023-03-14T09:50:54.290Z,200.00
2023-03-14T09:51:54.290Z,184.00
2023-03-14T09:52:54.267Z,176.00
2023-03-14T09:53:54.265Z,172.00
2023-03-14T09:54:54.222Z,160.00
2023-03-14T09:55:54.255Z,156.00
2023-03-14T09:56:54.247Z,168.00
2023-03-14T09:57:54.270Z,200.00
2023-03-14T09:58:54.174Z,204.00
2023-03-14T09:59:54.177Z,200.00
2023-03-14T10:00:54.176Z,176.00
2023-03-14T10:01:54.201Z,172.00
2023-03-14T10:02:54.135Z,164.00
2023-03-14T10:03:54.222Z,176.00
2023-03-14T10:04:54.086Z,196.00
2023-03-14T10:05:54.273Z,208.00
2023-03-14T10:06:54.117Z,220.00
2023-03-14T10:07:54.110Z,228.00
2023-03-14T10:08:54.072Z,232.00
2023-03-14T10:09:54.047Z,236.00
2023-03-14T10:10:54.008Z,208.00
2023-03-14T10:11:54.061Z,196.00
2023-03-14T10:12:54.954Z,188.00
2023-03-14T10:13:54.029Z,256.00
2023-03-14T10:14:53.955Z,272.00
2023-03-14T10:15:54.041Z,268.00
2023-03-14T10:16:53.963Z,240.00
2023-03-14T10:17:53.956Z,220.00
2023-03-14T10:18:53.914Z,204.00
2023-03-14T10:19:53.924Z,200.00
2023-03-14T10:20:53.890Z,192.00
2023-03-14T10:21:53.890Z,184.00
2023-03-14T10:22:53.897Z,188.00
2023-03-14T10:23:53.905Z,200.00
2023-03-14T10:24:53.831Z,180.00
2023-03-14T10:25:53.831Z,172.00
2023-03-14T10:26:53.784Z,164.00
2023-03-14T10:27:53.834Z,160.00
2023-03-14T10:28:53.787Z,148.00
2023-03-14T10:29:53.772Z,160.00
2023-03-14T10:30:53.840Z,160.00
2023-03-14T10:31:53.776Z,160.00
2023-03-14T10:32:53.819Z,160.00
2023-03-14T10:33:53.774Z,140.00
2023-03-14T10:34:53.699Z,136.00
2023-03-14T10:35:53.709Z,128.00
2023-03-14T10:36:53.697Z,128.00
2023-03-14T10:37:53.648Z,116.00
2023-03-14T10:38:53.704Z,104.00
2023-03-14T10:39:53.609Z,100.00
2023-03-14T10:40:53.658Z,92.00
2023-03-14T10:41:53.612Z,84.00
2023-03-14T10:42:53.645Z,92.00
2023-03-14T10:43:53.569Z,116.00
2023-03-14T10:44:53.571Z,108.00
2023-03-14T10:45:53.607Z,128.00
2023-03-14T10:46:53.559Z,132.00
2023-03-14T10:47:53.717Z,136.00
2023-03-14T10:48:53.548Z,136.00
2023-03-14T10:49:53.533Z,124.00
2023-03-14T10:50:53.499Z,128.00
2023-03-14T10:51:53.467Z,124.00
2023-03-14T10:53:02.882Z,120.00
2023-03-14T10:53:53.473Z,120.00
2023-03-14T10:54:53.445Z,96.00
2023-03-14T10:55:53.404Z,92.00
2023-03-14T10:56:53.422Z,88.00
2023-03-14T10:57:53.409Z,84.00
2023-03-14T10:58:53.426Z,72.00
2023-03-14T10:59:53.371Z,68.00
2023-03-14T11:00:53.397Z,68.00
2023-03-14T11:01:53.399Z,60.00
2023-03-14T11:02:53.335Z,72.00
2023-03-14T11:03:53.293Z,60.00
2023-03-14T11:04:53.313Z,56.00
2023-03-14T11:05:53.339Z,52.00
2023-03-14T11:06:53.261Z,52.00
2023-03-14T11:07:53.281Z,56.00
2023-03-14T11:08:53.250Z,68.00
2023-03-14T11:09:53.249Z,68.00
2023-03-14T11:10:53.222Z,68.00
2023-03-14T11:11:53.234Z,76.00
2023-03-14T11:12:53.204Z,88.00
2023-03-14T11:13:53.222Z,92.00
2023-03-14T11:14:53.169Z,120.00
2023-03-14T11:15:53.220Z,136.00
2023-03-14T11:16:53.211Z,136.00
2023-03-14T11:17:53.161Z,136.00
2023-03-14T11:18:53.088Z,176.00
2023-03-14T11:19:53.162Z,192.00
2023-03-14T11:20:53.102Z,168.00
2023-03-14T11:21:53.131Z,204.00
2023-03-14T11:22:53.038Z,184.00
2023-03-14T11:23:53.061Z,160.00
2023-03-14T11:24:53.018Z,196.00
2023-03-14T11:25:53.051Z,136.00
2023-03-14T11:26:53.042Z,128.00
2023-03-14T11:27:52.990Z,204.00
2023-03-14T11:28:53.217Z,188.00
2023-03-14T11:29:52.968Z,124.00
2023-03-14T11:30:53.064Z,160.00
2023-03-14T11:31:52.954Z,188.00
2023-03-14T11:32:52.964Z,164.00
2023-03-14T11:33:52.978Z,132.00
2023-03-14T11:34:52.960Z,92.00
2023-03-14T11:35:53.044Z,68.00
2023-03-14T11:36:52.874Z,56.00
2023-03-14T11:37:52.966Z,48.00
2023-03-14T11:38:52.868Z,60.00
2023-03-14T11:39:53.087Z,64.00
2023-03-14T11:40:52.827Z,60.00
2023-03-14T11:41:52.826Z,64.00
2023-03-14T11:42:52.797Z,80.00
2023-03-14T11:43:52.864Z,84.00
2023-03-14T11:44:52.805Z,80.00
2023-03-14T11:45:52.833Z,84.00
2023-03-14T11:46:52.760Z,100.00
2023-03-14T11:47:52.737Z,116.00
2023-03-14T11:48:52.698Z,104.00
2023-03-14T11:49:52.737Z,96.00
2023-03-14T11:50:52.692Z,96.00
2023-03-14T11:51:52.709Z,100.00
2023-03-14T11:52:52.686Z,108.00
2023-03-14T11:53:53.120Z,112.00
2023-03-14T11:54:52.634Z,128.00
2023-03-14T11:55:52.642Z,160.00
2023-03-14T11:56:52.603Z,184.00
2023-03-14T11:57:52.606Z,172.00
2023-03-14T11:58:52.569Z,164.00
2023-03-14T11:59:52.595Z,184.00
2023-03-14T12:00:52.566Z,188.00
2023-03-14T12:01:52.599Z,168.00
2023-03-14T12:02:52.506Z,148.00
2023-03-14T12:03:52.550Z,148.00
2023-03-14T12:04:52.502Z,152.00
2023-03-14T12:05:52.489Z,160.00
2023-03-14T12:06:53.711Z,192.00
2023-03-14T12:07:52.460Z,216.00
2023-03-14T12:08:52.424Z,248.00
2023-03-14T12:09:52.465Z,300.00
2023-03-14T12:10:52.469Z,288.00
2023-03-14T12:11:52.492Z,296.00
2023-03-14T12:12:52.387Z,256.00
2023-03-14T12:13:52.396Z,284.00
2023-03-14T12:14:52.354Z,292.00
2023-03-14T12:15:52.356Z,312.00
2023-03-14T12:16:52.428Z,292.00
2023-03-14T12:17:52.337Z,292.00
2023-03-14T12:18:52.332Z,296.00
2023-03-14T12:19:52.333Z,280.00
2023-03-14T12:20:52.284Z,276.00
2023-03-14T12:21:52.356Z,264.00
2023-03-14T12:22:52.257Z,268.00
2023-03-14T12:23:52.260Z,264.00
2023-03-14T12:24:52.210Z,268.00
2023-03-14T12:25:52.220Z,264.00
2023-03-14T12:26:52.231Z,260.00
2023-03-14T12:27:52.225Z,260.00
2023-03-14T12:28:52.201Z,264.00
2023-03-14T12:29:52.180Z,264.00
2023-03-14T12:30:52.131Z,264.00
2023-03-14T12:31:52.216Z,260.00
2023-03-14T12:32:52.169Z,268.00
2023-03-14T12:33:52.131Z,272.00
2023-03-14T12:34:52.116Z,276.00
2023-03-14T12:35:52.108Z,280.00
2023-03-14T12:36:52.050Z,276.00
2023-03-14T12:37:52.154Z,272.00
2023-03-14T12:38:52.028Z,268.00
2023-03-14T12:39:52.062Z,268.00
2023-03-14T12:40:52.002Z,268.00
2023-03-14T12:41:51.999Z,272.00
2023-03-14T12:42:52.052Z,272.00
2023-03-14T12:43:51.978Z,268.00
2023-03-14T12:44:51.977Z,272.00
2023-03-14T12:45:52.081Z,264.00
2023-03-14T12:46:51.982Z,260.00
2023-03-14T12:47:51.926Z,260.00
2023-03-14T12:48:51.884Z,264.00
2023-03-14T12:49:51.918Z,268.00
2023-03-14T12:50:51.885Z,260.00
2023-03-14T12:51:51.870Z,276.00
2023-03-14T12:52:51.832Z,276.00
2023-03-14T12:53:51.856Z,260.00
2023-03-14T12:54:51.857Z,252.00